createdAt,value
2023-01-01T00:56:57.550Z,6.50
2023-01-01T01:21:34.801Z,6.60
2023-01-01T01:24:03.112Z,6.60
2023-01-01T01:26:32.546Z,6.70
2023-01-01T01:31:31.850Z,6.50
2023-01-01T01:41:28.753Z,6.60
2023-01-01T01:43:59.080Z,6.50
2023-01-01T01:46:44.409Z,6.50
2023-01-01T01:49:25.949Z,6.40
2023-01-01T01:54:23.942Z,6.40
2023-01-01T01:57:01.505Z,6.40
2023-01-01T01:59:33.712Z,6.40
2023-01-01T02:09:23.554Z,6.20
2023-01-01T02:17:03.762Z,6.20
2023-01-01T02:19:59.423Z,6.20
2023-01-01T02:22:51.355Z,6.30
2023-01-01T02:25:42.435Z,6.20
2023-01-01T02:28:30.411Z,6.40
2023-01-01T02:30:58.271Z,6.30
2023-01-01T02:33:26.664Z,6.20
2023-01-01T02:36:02.273Z,6.10
2023-01-01T02:38:41.233Z,6.10
2023-01-01T02:41:25.202Z,6.10
2023-01-01T02:43:52.513Z,5.90
2023-01-01T02:48:51.249Z,6.10
2023-01-01T02:51:43.361Z,6.10
2023-01-01T02:54:27.581Z,6.10
2023-01-01T02:57:32.432Z,6.20
2023-01-01T03:00:24.484Z,6.20
2023-01-01T03:03:00.989Z,6.20
2023-01-01T03:05:34.485Z,6.20
2023-01-01T03:08:14.590Z,6.10
2023-01-01T03:11:03.447Z,6.10
2023-01-01T03:14:06.866Z,6.00
2023-01-01T03:22:06.774Z,5.90
2023-01-01T03:24:54.259Z,5.80
2023-01-01T03:29:51.476Z,5.80
2023-01-01T03:32:45.534Z,5.90
2023-01-01T03:35:14.947Z,5.90
2023-01-01T03:37:45.675Z,5.90
2023-01-01T03:40:14.333Z,6.00
2023-01-01T03:42:46.644Z,6.00
2023-01-01T03:52:38.513Z,5.80
2023-01-01T03:55:28.596Z,5.90
2023-01-01T03:58:18.399Z,5.90
2023-01-01T04:00:55.578Z,5.90
2023-01-01T04:03:31.088Z,5.90
2023-01-01T04:10:57.294Z,5.80
2023-01-01T04:42:54.521Z,5.50
2023-01-01T06:01:30.778Z,5.30
2023-01-01T06:03:58.788Z,5.30
2023-01-01T06:06:33.055Z,5.30
2023-01-01T06:09:02.677Z,5.10
2023-01-01T06:11:30.082Z,5.20
2023-01-01T06:13:58.884Z,5.20
2023-01-01T06:16:26.897Z,5.10
2023-01-01T06:21:23.989Z,5.10
2023-01-01T06:26:21.760Z,5.10
2023-01-01T06:28:49.392Z,5.10
2023-01-01T06:31:19.072Z,5.10
2023-01-01T06:36:15.130Z,5.00
2023-01-01T06:38:45.404Z,5.00
2023-01-01T06:41:14.961Z,5.00
2023-01-01T06:46:29.608Z,4.90
2023-01-01T06:49:01.753Z,4.90
2023-01-01T06:51:42.619Z,4.90
2023-01-01T06:54:10.712Z,4.90
2023-01-01T07:01:35.790Z,4.90
2023-01-01T07:04:05.518Z,4.90
2023-01-01T07:06:33.349Z,4.90
2023-01-01T07:21:30.164Z,4.80
2023-01-01T07:24:01.517Z,4.80
2023-01-01T07:26:29.799Z,4.80
2023-01-01T07:56:08.429Z,4.90
2023-01-01T08:25:35.232Z,5.00
2023-01-01T08:57:31.806Z,5.50
2023-01-01T09:12:16.745Z,5.90
2023-01-01T09:44:33.394Z,7.20
2023-01-01T09:47:03.499Z,7.30
2023-01-01T09:49:44.629Z,7.50
2023-01-01T09:52:14.969Z,7.70
2023-01-01T09:54:51.532Z,7.80
2023-01-01T10:03:12.108Z,8.20
2023-01-01T10:06:20.380Z,8.30
2023-01-01T10:11:46.537Z,8.50
2023-01-01T10:14:27.696Z,8.60
2023-01-01T10:16:57.048Z,8.70
2023-01-01T10:19:36.727Z,8.70
2023-01-01T10:22:13.385Z,8.80
2023-01-01T10:24:45.717Z,9.00
2023-01-01T10:27:28.604Z,9.00
2023-01-01T10:32:36.720Z,9.30
2023-01-01T10:35:15.279Z,9.40
2023-01-01T10:40:20.119Z,9.60
2023-01-01T10:42:52.404Z,9.60
2023-01-01T10:45:36.619Z,9.70
2023-01-01T10:48:22.029Z,9.70
2023-01-01T10:50:53.668Z,9.80
2023-01-01T10:53:26.533Z,9.80
2023-01-01T10:56:03.633Z,9.80
2023-01-01T10:58:43.127Z,10.30
2023-01-01T11:01:17.698Z,9.90
2023-01-01T11:03:56.569Z,10.30
2023-01-01T11:06:27.636Z,9.80
2023-01-01T11:08:57.396Z,10.20
2023-01-01T11:13:53.658Z,10.40
2023-01-01T11:18:49.380Z,10.60
2023-01-01T11:21:24.176Z,10.70
2023-01-01T11:24:09.237Z,10.70
2023-01-01T11:31:40.301Z,11.20
2023-01-01T11:34:29.337Z,11.20
2023-01-01T11:37:14.594Z,11.30
2023-01-01T11:39:44.422Z,11.40
2023-01-01T11:42:20.040Z,11.40
2023-01-01T11:44:58.314Z,11.50
2023-01-01T11:47:39.623Z,11.70
2023-01-01T11:50:31.256Z,12.10
2023-01-01T11:53:16.474Z,11.70
2023-01-01T11:55:47.667Z,11.80
2023-01-01T11:58:48.653Z,11.80
2023-01-01T12:01:49.495Z,11.80
2023-01-01T12:04:31.730Z,12.00
2023-01-01T12:07:14.424Z,11.90
2023-01-01T12:09:57.670Z,12.00
2023-01-01T12:12:39.740Z,12.20
2023-01-01T12:15:39.149Z,12.30
2023-01-01T12:18:20.749Z,12.30
2023-01-01T12:21:00.634Z,13.00
2023-01-01T12:26:14.969Z,12.60
2023-01-01T12:31:30.495Z,13.00
2023-01-01T12:34:20.615Z,13.00
2023-01-01T12:37:20.080Z,13.00
2023-01-01T12:40:08.992Z,13.20
2023-01-01T12:42:54.800Z,13.00
2023-01-01T12:48:16.444Z,13.30
2023-01-01T12:50:58.474Z,13.50
2023-01-01T12:53:55.367Z,13.20
2023-01-01T12:57:02.947Z,13.10
2023-01-01T12:59:34.035Z,13.20
2023-01-01T13:02:04.090Z,13.30
2023-01-01T13:07:05.756Z,13.20
2023-01-01T13:09:48.468Z,13.20
2023-01-01T13:12:19.723Z,13.20
2023-01-01T13:14:49.595Z,13.20
2023-01-01T13:17:25.548Z,13.40
2023-01-01T13:19:59.647Z,13.20
2023-01-01T13:25:26.066Z,13.70
2023-01-01T13:28:03.371Z,13.30
2023-01-01T13:30:36.486Z,13.00
2023-01-01T13:33:27.539Z,13.20
2023-01-01T13:36:09.705Z,13.20
2023-01-01T13:38:51.348Z,13.20
2023-01-01T13:41:43.327Z,13.20
2023-01-01T13:46:52.439Z,13.20
2023-01-01T13:49:46.228Z,13.20
2023-01-01T13:52:52.996Z,13.20
2023-01-01T13:58:36.438Z,13.00
2023-01-01T14:01:12.215Z,13.40
2023-01-01T14:03:44.591Z,13.10
2023-01-01T14:06:32.512Z,12.90
2023-01-01T14:09:06.796Z,13.00
2023-01-01T14:18:59.830Z,13.00
2023-01-01T14:21:31.777Z,13.00
2023-01-01T14:24:03.552Z,13.00
2023-01-01T14:26:32.173Z,13.00
2023-01-01T14:29:02.070Z,13.00
2023-01-01T14:31:35.628Z,13.00
2023-01-01T14:34:28.519Z,13.00
2023-01-01T14:36:57.934Z,12.90
2023-01-01T14:39:33.133Z,12.90
2023-01-01T14:42:05.027Z,12.90
2023-01-01T14:44:46.414Z,12.70
2023-01-01T14:47:30.746Z,13.00
2023-01-01T14:50:10.304Z,12.80
2023-01-01T14:55:05.812Z,12.70
2023-01-01T14:57:35.656Z,12.70
2023-01-01T15:00:14.720Z,12.70
2023-01-01T15:05:34.930Z,12.60
2023-01-01T15:08:04.993Z,12.50
2023-01-01T15:10:34.941Z,12.50
2023-01-01T15:13:06.336Z,12.40
2023-01-01T15:15:34.732Z,12.40
2023-01-01T15:20:30.109Z,12.10
2023-01-01T15:27:54.458Z,11.90
2023-01-01T15:30:26.774Z,11.60
2023-01-01T15:35:33.757Z,11.70
2023-01-01T15:38:11.898Z,11.30
2023-01-01T15:43:13.133Z,11.20
2023-01-01T15:45:41.509Z,11.50
2023-01-01T15:48:11.302Z,11.40
2023-01-01T15:50:49.759Z,11.10
2023-01-01T15:55:45.708Z,10.90
2023-01-01T15:58:26.203Z,11.00
2023-01-01T16:01:00.589Z,10.80
2023-01-01T16:03:29.749Z,10.70
2023-01-01T16:05:57.476Z,10.50
2023-01-01T16:13:19.965Z,10.70
2023-01-01T16:15:59.087Z,9.60
2023-01-01T16:18:34.534Z,10.20
2023-01-01T16:21:02.837Z,10.80
2023-01-01T16:25:56.965Z,9.80
2023-01-01T16:28:23.787Z,10.20
2023-01-01T16:33:22.979Z,9.80
2023-01-01T16:43:18.401Z,9.40
2023-01-01T16:50:40.428Z,9.30
2023-01-01T16:53:07.240Z,9.20
2023-01-01T16:58:46.964Z,9.40
2023-01-01T17:18:01.894Z,8.60
2023-01-01T17:20:28.810Z,8.60
2023-01-01T17:27:50.615Z,8.60
2023-01-01T17:30:17.479Z,8.50
2023-01-01T17:42:34.842Z,8.40
2023-01-01T17:45:01.610Z,8.10
2023-01-01T17:47:33.020Z,8.20
2023-01-01T17:59:49.688Z,7.90
2023-01-01T18:07:12.002Z,7.70
2023-01-01T18:12:06.819Z,7.60
2023-01-01T18:19:28.153Z,7.60
2023-01-01T18:39:25.635Z,7.90
2023-01-01T18:42:16.482Z,7.60
2023-01-01T18:47:18.759Z,7.30
2023-01-01T18:50:08.618Z,7.50
2023-01-01T18:55:08.592Z,7.40
2023-01-01T19:00:24.348Z,7.40
2023-01-01T19:02:59.534Z,7.40
2023-01-01T19:08:17.073Z,7.50
2023-01-01T19:10:54.262Z,7.40
2023-01-01T19:13:51.694Z,7.50
2023-01-01T19:16:30.412Z,7.40
2023-01-01T19:19:28.264Z,7.40
2023-01-01T19:22:06.678Z,7.40
2023-01-01T19:24:36.208Z,7.30
2023-01-01T19:27:15.237Z,7.30
2023-01-01T19:29:47.977Z,7.30
2023-01-01T19:37:10.945Z,7.30
2023-01-01T19:44:35.305Z,7.10
2023-01-01T20:54:22.302Z,6.50
2023-01-01T21:14:21.360Z,6.40
2023-01-01T21:21:51.973Z,6.60
2023-01-01T21:24:32.763Z,6.50
2023-01-01T21:27:08.700Z,6.50
2023-01-01T21:32:23.010Z,6.50
2023-01-01T21:34:51.797Z,6.50
2023-01-01T21:40:34.686Z,6.30
2023-01-01T21:43:27.182Z,6.40
2023-01-01T21:46:02.516Z,6.10
2023-01-01T21:48:50.083Z,6.20
2023-01-01T21:51:22.634Z,6.20
2023-01-01T21:56:32.388Z,6.20
2023-01-01T21:59:28.119Z,6.10
2023-01-01T22:02:00.489Z,6.10
2023-01-01T22:04:35.756Z,6.10
2023-01-01T22:07:56.624Z,6.10
2023-01-01T22:10:21.621Z,6.10
2023-01-01T22:12:53.944Z,6.00
2023-01-01T22:15:31.896Z,6.00
2023-01-01T22:18:27.718Z,6.00
2023-01-01T22:23:40.962Z,5.90
2023-01-01T22:26:24.787Z,5.90
2023-01-01T22:28:58.387Z,6.00
2023-01-01T22:31:29.548Z,6.00
2023-01-01T22:36:34.138Z,5.90
2023-01-01T22:39:15.758Z,5.90
2023-01-01T22:44:12.129Z,5.90
2023-01-01T22:46:42.372Z,6.00
2023-01-01T22:49:19.074Z,5.90
2023-01-01T22:51:47.358Z,6.00
2023-01-01T23:01:36.616Z,5.90
2023-01-01T23:21:35.588Z,5.80
2023-01-01T23:24:06.302Z,5.90
2023-01-01T23:29:01.890Z,5.90
2023-01-01T23:31:29.367Z,5.80
2023-01-01T23:33:57.303Z,5.80
2023-01-01T23:36:25.933Z,5.70
2023-01-01T23:46:15.475Z,5.40
2023-01-01T23:48:44.556Z,5.20
2023-01-01T23:51:12.446Z,5.10
